createdAt,value
2022-09-28T00:00:12.684Z,65.90
2022-09-28T00:01:12.674Z,54.62
2022-09-28T00:02:12.828Z,51.72
2022-09-28T00:03:12.693Z,65.74
2022-09-28T00:04:12.639Z,48.98
2022-09-28T00:05:13.627Z,45.44
2022-09-28T00:06:12.606Z,68.00
2022-09-28T00:07:12.594Z,61.55
2022-09-28T00:08:12.600Z,49.63
2022-09-28T00:09:12.619Z,56.07
2022-09-28T00:10:12.556Z,60.91
2022-09-28T00:11:12.558Z,65.58
2022-09-28T00:12:12.534Z,69.45
2022-09-28T00:13:12.522Z,60.59
2022-09-28T00:14:12.506Z,52.53
2022-09-28T00:15:12.498Z,66.55
2022-09-28T00:16:12.517Z,46.89
2022-09-28T00:17:12.484Z,57.20
2022-09-28T00:18:12.466Z,62.68
2022-09-28T00:19:12.439Z,46.41
2022-09-28T00:20:12.441Z,62.68
2022-09-28T00:21:12.416Z,48.02
2022-09-28T00:22:12.413Z,52.69
2022-09-28T00:23:12.425Z,49.63
2022-09-28T00:24:12.386Z,64.29
2022-09-28T00:25:12.373Z,58.01
2022-09-28T00:26:12.361Z,64.45
2022-09-28T00:27:12.354Z,53.98
2022-09-28T00:28:12.332Z,57.69
2022-09-28T00:29:12.343Z,53.33
2022-09-28T00:30:12.301Z,65.58
2022-09-28T00:31:12.362Z,52.37
2022-09-28T00:32:12.273Z,48.50
2022-09-28T00:33:12.266Z,61.07
2022-09-28T00:34:12.256Z,51.88
2022-09-28T00:35:12.252Z,59.46
2022-09-28T00:36:12.229Z,51.08
2022-09-28T00:37:12.210Z,50.76
2022-09-28T00:38:12.209Z,62.36
2022-09-28T00:39:12.195Z,59.94
2022-09-28T00:40:12.184Z,50.76
2022-09-28T00:41:12.179Z,50.27
2022-09-28T00:42:12.148Z,57.04
2022-09-28T00:43:12.137Z,61.07
2022-09-28T00:44:12.131Z,55.27
2022-09-28T00:45:12.111Z,45.12
2022-09-28T00:46:12.153Z,49.95
2022-09-28T00:47:12.109Z,52.21
2022-09-28T00:48:12.076Z,54.46
2022-09-28T00:49:12.061Z,54.62
2022-09-28T00:50:12.071Z,55.75
2022-09-28T00:51:12.134Z,47.37
2022-09-28T00:52:12.060Z,57.20
2022-09-28T00:53:12.028Z,53.50
2022-09-28T00:54:12.007Z,82.66
2022-09-28T00:55:11.995Z,56.56
2022-09-28T00:56:11.968Z,51.88
2022-09-28T00:57:11.974Z,53.82
2022-09-28T00:58:11.951Z,57.52
2022-09-28T00:59:11.959Z,55.91
2022-09-28T01:00:11.932Z,56.24
2022-09-28T01:01:12.052Z,63.33
2022-09-28T01:02:11.971Z,51.40
2022-09-28T01:03:11.920Z,50.43
2022-09-28T01:04:11.875Z,47.70
2022-09-28T01:05:11.892Z,53.66
2022-09-28T01:06:11.856Z,65.74
2022-09-28T01:07:11.843Z,43.83
2022-09-28T01:08:11.817Z,44.79
2022-09-28T01:09:11.806Z,47.37
2022-09-28T01:10:11.806Z,49.95
2022-09-28T01:11:11.788Z,55.27
2022-09-28T01:12:11.771Z,58.33
2022-09-28T01:13:11.752Z,59.62
2022-09-28T01:14:11.740Z,46.41
2022-09-28T01:15:11.733Z,46.08
2022-09-28T01:16:11.794Z,53.33
2022-09-28T01:17:11.727Z,57.52
2022-09-28T01:18:11.707Z,59.62
2022-09-28T01:19:11.680Z,53.17
2022-09-28T01:20:11.682Z,53.50
2022-09-28T01:21:11.654Z,59.94
2022-09-28T01:22:11.638Z,50.92
2022-09-28T01:23:11.643Z,49.95
2022-09-28T01:24:11.635Z,48.18
2022-09-28T01:25:11.616Z,55.75
2022-09-28T01:26:11.598Z,47.86
2022-09-28T01:27:11.585Z,44.63
2022-09-28T01:28:11.726Z,49.79
2022-09-28T01:29:11.571Z,48.66
2022-09-28T01:30:11.570Z,47.37
2022-09-28T01:31:11.621Z,49.47
2022-09-28T01:32:11.524Z,45.76
2022-09-28T01:33:11.501Z,55.59
2022-09-28T01:34:11.496Z,56.88
2022-09-28T01:35:11.487Z,61.55
2022-09-28T01:36:11.467Z,62.52
2022-09-28T01:37:11.457Z,59.62
2022-09-28T01:38:11.447Z,53.82
2022-09-28T01:39:11.422Z,55.11
2022-09-28T01:40:11.423Z,47.37
2022-09-28T01:41:11.410Z,53.01
2022-09-28T01:42:11.406Z,56.40
2022-09-28T01:43:11.378Z,48.66
2022-09-28T01:44:11.374Z,57.36
2022-09-28T01:45:11.370Z,48.66
2022-09-28T01:46:11.413Z,65.90
2022-09-28T01:47:11.335Z,56.07
2022-09-28T01:48:11.307Z,57.52
2022-09-28T01:49:11.301Z,44.47
2022-09-28T01:50:11.284Z,46.41
2022-09-28T01:51:11.274Z,68.16
2022-09-28T01:52:11.265Z,58.97
2022-09-28T01:53:11.275Z,49.47
2022-09-28T01:54:11.236Z,43.02
2022-09-28T01:55:11.225Z,48.66
2022-09-28T01:56:11.208Z,56.88
2022-09-28T01:57:11.205Z,47.53
2022-09-28T01:58:11.197Z,50.43
2022-09-28T01:59:11.243Z,45.28
2022-09-28T02:00:11.156Z,48.02
2022-09-28T02:01:11.256Z,51.24
2022-09-28T02:02:11.203Z,61.55
2022-09-28T02:03:11.123Z,49.47
2022-09-28T02:04:11.106Z,59.62
2022-09-28T02:05:11.107Z,62.20
2022-09-28T02:06:11.090Z,65.26
2022-09-28T02:07:11.067Z,59.30
2022-09-28T02:08:11.054Z,46.08
2022-09-28T02:09:11.114Z,56.56
2022-09-28T02:10:11.033Z,51.72
2022-09-28T02:11:11.034Z,48.02
2022-09-28T02:12:11.009Z,51.40
2022-09-28T02:13:11.002Z,51.24
2022-09-28T02:14:10.984Z,49.15
2022-09-28T02:15:10.980Z,54.46
2022-09-28T02:16:10.969Z,55.11
2022-09-28T02:17:10.960Z,55.43
2022-09-28T02:18:10.931Z,50.43
2022-09-28T02:19:10.914Z,54.46
2022-09-28T02:20:10.904Z,55.43
2022-09-28T02:21:10.900Z,55.91
2022-09-28T02:22:10.879Z,57.85
2022-09-28T02:23:10.904Z,49.15
2022-09-28T02:24:10.851Z,64.94
2022-09-28T02:25:10.845Z,46.73
2022-09-28T02:26:10.831Z,46.08
2022-09-28T02:27:10.821Z,49.15
2022-09-28T02:28:10.806Z,65.74
2022-09-28T02:29:10.832Z,65.74
2022-09-28T02:30:10.781Z,68.16
2022-09-28T02:31:10.794Z,53.98
2022-09-28T02:32:10.758Z,52.69
2022-09-28T02:33:10.737Z,57.04
2022-09-28T02:34:10.738Z,64.94
2022-09-28T02:35:10.722Z,49.47
2022-09-28T02:36:10.707Z,50.27
2022-09-28T02:37:10.689Z,47.86
2022-09-28T02:38:10.676Z,55.43
2022-09-28T02:39:10.785Z,57.85
2022-09-28T02:40:10.647Z,49.31
2022-09-28T02:41:10.647Z,53.82
2022-09-28T02:42:10.630Z,55.59
2022-09-28T02:43:10.609Z,59.46
2022-09-28T02:44:10.599Z,63.16
2022-09-28T02:45:10.588Z,56.40
2022-09-28T02:46:10.601Z,52.85
2022-09-28T02:47:10.574Z,63.97
2022-09-28T02:48:10.550Z,57.20
2022-09-28T02:49:30.250Z,56.07
2022-09-28T02:50:10.541Z,49.15
2022-09-28T02:51:10.514Z,53.33
2022-09-28T02:52:10.502Z,57.85
2022-09-28T02:53:10.514Z,50.11
2022-09-28T02:54:10.473Z,57.04
2022-09-28T02:55:10.460Z,72.67
2022-09-28T02:56:10.445Z,61.71
2022-09-28T02:57:10.438Z,58.81
2022-09-28T02:58:10.418Z,60.26
2022-09-28T02:59:10.492Z,61.23
2022-09-28T03:00:10.400Z,59.62
2022-09-28T03:01:10.443Z,65.26
2022-09-28T03:02:10.424Z,65.26
2022-09-28T03:03:10.358Z,60.59
2022-09-28T03:04:10.345Z,54.30
2022-09-28T03:05:10.352Z,68.32
2022-09-28T03:06:10.316Z,61.07
2022-09-28T03:07:10.314Z,61.39
2022-09-28T03:08:10.293Z,64.94
2022-09-28T03:09:10.325Z,68.64
2022-09-28T03:10:10.273Z,52.37
2022-09-28T03:11:10.269Z,57.04
2022-09-28T03:12:10.242Z,67.51
2022-09-28T03:13:10.230Z,58.01
2022-09-28T03:14:10.222Z,67.03
2022-09-28T03:15:10.214Z,61.23
2022-09-28T03:16:10.292Z,60.10
2022-09-28T03:17:10.190Z,59.94
2022-09-28T03:18:10.162Z,63.00
2022-09-28T03:19:10.232Z,63.97
2022-09-28T03:20:10.148Z,66.39
2022-09-28T03:21:10.137Z,63.00
2022-09-28T03:22:10.113Z,65.74
2022-09-28T03:23:24.497Z,61.39
2022-09-28T03:24:10.094Z,67.03
2022-09-28T03:25:10.077Z,66.06
2022-09-28T03:26:10.064Z,65.58
2022-09-28T03:27:10.049Z,64.29
2022-09-28T03:28:10.049Z,68.80
2022-09-28T03:29:10.129Z,65.10
2022-09-28T03:30:10.014Z,68.32
2022-09-28T03:31:10.095Z,59.30
2022-09-28T03:32:10.012Z,70.09
2022-09-28T03:33:09.982Z,67.51
2022-09-28T03:34:09.965Z,68.96
2022-09-28T03:35:09.968Z,71.22
2022-09-28T03:36:09.940Z,67.03
2022-09-28T03:37:09.922Z,61.87
2022-09-28T03:38:09.916Z,67.03
2022-09-28T03:39:10.007Z,68.64
2022-09-28T03:40:09.889Z,70.74
2022-09-28T03:41:09.894Z,75.09
2022-09-28T03:42:09.864Z,64.78
2022-09-28T03:43:09.846Z,64.94
2022-09-28T03:44:09.835Z,66.23
2022-09-28T03:45:09.825Z,70.25
2022-09-28T03:46:09.918Z,64.78
2022-09-28T03:47:09.811Z,68.64
2022-09-28T03:48:09.800Z,69.77
2022-09-28T03:49:09.875Z,70.90
2022-09-28T03:50:09.758Z,65.90
2022-09-28T03:51:09.748Z,69.29
2022-09-28T03:52:09.734Z,67.03
2022-09-28T03:53:09.736Z,68.00
2022-09-28T03:54:09.704Z,67.35
2022-09-28T03:55:09.704Z,63.33
2022-09-28T03:56:09.681Z,62.68
2022-09-28T03:57:09.674Z,68.64
2022-09-28T03:58:09.675Z,65.58
2022-09-28T03:59:09.686Z,73.15
2022-09-28T04:00:09.632Z,63.81
2022-09-28T04:01:14.188Z,63.33
2022-09-28T04:02:09.648Z,69.13
2022-09-28T04:03:09.593Z,66.39
2022-09-28T04:04:09.576Z,69.45
2022-09-28T04:05:09.579Z,69.13
2022-09-28T04:06:09.553Z,67.03
2022-09-28T04:07:09.542Z,64.29
2022-09-28T04:08:09.528Z,67.68
2022-09-28T04:09:09.518Z,67.19
2022-09-28T04:10:09.503Z,66.55
2022-09-28T04:11:09.507Z,68.96
2022-09-28T04:12:09.488Z,68.64
2022-09-28T04:13:09.467Z,72.19
2022-09-28T04:14:09.453Z,69.13
2022-09-28T04:15:09.439Z,68.64
2022-09-28T04:16:09.519Z,69.61
2022-09-28T04:17:09.426Z,63.33
2022-09-28T04:18:09.426Z,66.71
2022-09-28T04:19:09.398Z,64.13
2022-09-28T04:20:09.377Z,69.45
2022-09-28T04:21:09.379Z,67.51
2022-09-28T04:22:09.363Z,70.74
2022-09-28T04:23:09.351Z,70.42
2022-09-28T04:24:09.339Z,64.78
2022-09-28T04:25:09.313Z,68.48
2022-09-28T04:26:09.296Z,70.58
2022-09-28T04:27:09.289Z,67.35
2022-09-28T04:28:09.281Z,70.58
2022-09-28T04:29:09.302Z,66.55
2022-09-28T04:30:09.253Z,66.87
2022-09-28T04:31:09.240Z,69.45
2022-09-28T04:32:09.225Z,65.74
2022-09-28T04:33:09.220Z,71.22
2022-09-28T04:34:09.206Z,65.42
2022-09-28T04:35:09.207Z,67.19
2022-09-28T04:36:09.177Z,70.90
2022-09-28T04:37:09.162Z,65.90
2022-09-28T04:38:09.153Z,59.14
2022-09-28T04:39:09.250Z,73.15
2022-09-28T04:40:09.133Z,58.81
2022-09-28T04:41:09.128Z,69.61
2022-09-28T04:42:09.098Z,69.13
2022-09-28T04:43:09.089Z,66.55
2022-09-28T04:44:09.074Z,71.87
2022-09-28T04:45:09.061Z,71.06
2022-09-28T04:46:09.099Z,66.87
2022-09-28T04:47:09.058Z,67.03
2022-09-28T04:48:09.018Z,68.64
2022-09-28T04:49:09.010Z,69.29
2022-09-28T04:50:09.000Z,64.61
2022-09-28T04:51:08.984Z,74.77
2022-09-28T04:52:08.922Z,67.68
2022-09-28T04:53:08.971Z,70.25
2022-09-28T04:54:08.946Z,70.42
2022-09-28T04:55:08.945Z,70.90
2022-09-28T04:56:08.919Z,72.19
2022-09-28T04:57:08.872Z,71.06
2022-09-28T04:58:08.843Z,73.96
2022-09-28T04:59:08.840Z,71.06
2022-09-28T05:00:08.818Z,77.99
2022-09-28T05:01:08.871Z,71.87
2022-09-28T05:02:08.818Z,72.67
2022-09-28T05:03:08.778Z,75.41
2022-09-28T05:04:08.767Z,68.64
2022-09-28T05:05:08.768Z,70.58
2022-09-28T05:06:08.750Z,62.84
2022-09-28T05:07:08.725Z,69.13
2022-09-28T05:08:08.713Z,70.58
2022-09-28T05:09:08.707Z,71.06
2022-09-28T05:10:08.702Z,70.09
2022-09-28T05:11:08.687Z,68.00
2022-09-28T05:12:08.665Z,68.00
2022-09-28T05:13:08.649Z,64.94
2022-09-28T05:14:08.641Z,70.58
2022-09-28T05:15:08.635Z,73.48
2022-09-28T05:16:08.659Z,70.09
2022-09-28T05:17:08.619Z,74.12
2022-09-28T05:18:08.622Z,71.54
2022-09-28T05:19:08.574Z,65.26
2022-09-28T05:20:08.574Z,71.54
2022-09-28T05:21:08.551Z,68.00
2022-09-28T05:22:08.546Z,68.96
2022-09-28T05:23:08.545Z,69.13
2022-09-28T05:24:08.510Z,70.42
2022-09-28T05:25:08.514Z,68.00
2022-09-28T05:26:08.485Z,74.60
2022-09-28T05:27:08.479Z,71.54
2022-09-28T05:28:08.475Z,61.71
2022-09-28T05:29:08.460Z,70.74
2022-09-28T05:30:08.446Z,67.35
2022-09-28T05:31:08.424Z,67.03
2022-09-28T05:32:08.474Z,70.42
2022-09-28T05:33:08.396Z,70.90
2022-09-28T05:34:08.387Z,69.29
2022-09-28T05:35:08.409Z,69.61
2022-09-28T05:36:08.373Z,71.06
2022-09-28T05:37:08.359Z,69.13
2022-09-28T05:38:08.344Z,68.32
2022-09-28T05:39:08.319Z,71.87
2022-09-28T05:40:08.320Z,67.03
2022-09-28T05:41:08.400Z,71.54
2022-09-28T05:42:08.288Z,72.67
2022-09-28T05:43:08.288Z,68.64
2022-09-28T05:44:08.253Z,72.35
2022-09-28T05:45:08.263Z,70.42
2022-09-28T05:46:08.302Z,70.58
2022-09-28T05:47:08.238Z,70.74
2022-09-28T05:48:08.217Z,73.80
2022-09-28T05:49:08.201Z,65.74
2022-09-28T05:50:08.183Z,68.64
2022-09-28T05:51:08.176Z,70.74
2022-09-28T05:52:08.152Z,70.25
2022-09-28T05:53:08.160Z,72.99
2022-09-28T05:54:08.143Z,70.74
2022-09-28T05:55:08.125Z,67.35
2022-09-28T05:56:08.107Z,67.51
2022-09-28T05:57:08.097Z,72.83
2022-09-28T05:58:08.085Z,69.77
2022-09-28T05:59:08.089Z,72.99
2022-09-28T06:00:08.075Z,72.51
2022-09-28T06:01:08.092Z,64.78
2022-09-28T06:02:08.122Z,72.67
2022-09-28T06:03:09.428Z,69.29
2022-09-28T06:04:08.018Z,68.00
2022-09-28T06:05:08.002Z,70.09
2022-09-28T06:06:07.999Z,74.44
2022-09-28T06:07:07.971Z,69.61
2022-09-28T06:08:07.962Z,67.84
2022-09-28T06:09:07.956Z,69.61
2022-09-28T06:10:07.964Z,61.39
2022-09-28T06:11:07.955Z,73.32
2022-09-28T06:12:07.926Z,70.58
2022-09-28T06:13:07.888Z,70.74
2022-09-28T06:14:07.887Z,69.77
2022-09-28T06:15:07.867Z,70.74
2022-09-28T06:16:07.957Z,66.39
2022-09-28T06:17:07.930Z,68.00
2022-09-28T06:18:07.826Z,71.70
2022-09-28T06:19:07.824Z,67.03
2022-09-28T06:20:07.809Z,71.38
2022-09-28T06:21:07.809Z,69.77
2022-09-28T06:22:07.789Z,69.13
2022-09-28T06:23:07.781Z,69.77
2022-09-28T06:24:07.754Z,69.93
2022-09-28T06:25:07.748Z,68.16
2022-09-28T06:26:07.729Z,69.93
2022-09-28T06:27:07.714Z,72.03
2022-09-28T06:28:07.711Z,68.00
2022-09-28T06:29:07.714Z,71.06
2022-09-28T06:30:07.681Z,70.58
2022-09-28T06:31:07.695Z,67.03
2022-09-28T06:32:07.655Z,68.48
2022-09-28T06:33:07.650Z,71.38
2022-09-28T06:34:07.625Z,60.59
2022-09-28T06:35:07.642Z,70.58
2022-09-28T06:36:07.646Z,73.64
2022-09-28T06:37:07.619Z,71.06
2022-09-28T06:38:07.572Z,71.87
2022-09-28T06:39:07.566Z,69.61
2022-09-28T06:40:07.550Z,67.35
2022-09-28T06:41:07.580Z,70.74
2022-09-28T06:42:07.524Z,70.90
2022-09-28T06:43:07.512Z,70.58
2022-09-28T06:44:07.521Z,72.51
2022-09-28T06:45:07.485Z,71.38
2022-09-28T06:46:07.555Z,69.61
2022-09-28T06:47:07.514Z,71.22
2022-09-28T06:48:07.443Z,71.87
2022-09-28T06:49:07.435Z,69.61
2022-09-28T06:50:07.449Z,67.03
2022-09-28T06:51:07.420Z,71.38
2022-09-28T06:52:07.405Z,71.06
2022-09-28T06:53:07.493Z,71.06
2022-09-28T06:54:07.386Z,69.61
2022-09-28T06:55:07.362Z,71.87
2022-09-28T06:56:07.389Z,69.13
2022-09-28T06:57:07.334Z,72.19
2022-09-28T06:58:07.321Z,67.51
2022-09-28T06:59:07.349Z,68.64
2022-09-28T07:00:07.317Z,72.19
2022-09-28T07:01:07.346Z,67.84
2022-09-28T07:02:07.380Z,67.35
2022-09-28T07:03:07.261Z,70.42
2022-09-28T07:04:07.245Z,70.58
2022-09-28T07:05:07.285Z,73.15
2022-09-28T07:06:07.220Z,70.42
2022-09-28T07:07:07.211Z,68.64
2022-09-28T07:08:07.221Z,71.22
2022-09-28T07:09:27.400Z,71.38
2022-09-28T07:10:07.196Z,67.03
2022-09-28T07:11:07.184Z,72.83
2022-09-28T07:12:07.203Z,71.54
2022-09-28T07:13:11.185Z,69.61
2022-09-28T07:14:07.134Z,68.32
2022-09-28T07:15:07.170Z,67.51
2022-09-28T07:16:07.092Z,64.13
2022-09-28T07:17:13.802Z,68.00
2022-09-28T07:18:07.160Z,70.90
2022-09-28T07:19:07.059Z,65.90
2022-09-28T07:20:16.548Z,72.19
2022-09-28T07:21:07.532Z,72.35
2022-09-28T07:22:07.035Z,65.90
2022-09-28T07:23:16.897Z,69.61
2022-09-28T07:24:07.162Z,70.42
2022-09-28T07:25:06.983Z,67.35
2022-09-28T07:26:09.034Z,69.13
2022-09-28T07:27:06.978Z,70.58
2022-09-28T07:28:06.945Z,65.42
2022-09-28T07:29:06.954Z,68.96
2022-09-28T07:30:07.012Z,71.22
2022-09-28T07:31:06.939Z,66.71
2022-09-28T07:32:06.895Z,69.29
2022-09-28T07:33:06.880Z,71.70
2022-09-28T07:34:06.869Z,67.51
2022-09-28T07:35:06.885Z,67.03
2022-09-28T07:36:07.096Z,70.42
2022-09-28T07:37:06.860Z,67.51
2022-09-28T07:38:06.840Z,70.09
2022-09-28T07:39:06.806Z,73.15
2022-09-28T07:40:06.830Z,66.87
2022-09-28T07:41:06.849Z,73.15
2022-09-28T07:42:06.788Z,72.67
2022-09-28T07:43:06.762Z,68.64
2022-09-28T07:44:06.760Z,68.48
2022-09-28T07:45:06.735Z,70.90
2022-09-28T07:46:06.804Z,66.87
2022-09-28T07:47:06.734Z,71.06
2022-09-28T07:48:06.738Z,70.74
2022-09-28T07:49:09.833Z,68.00
2022-09-28T07:50:06.676Z,68.48
2022-09-28T07:51:06.653Z,74.44
2022-09-28T07:52:06.705Z,69.93
2022-09-28T07:53:06.681Z,70.09
2022-09-28T07:54:06.646Z,74.44
2022-09-28T07:55:07.371Z,66.87
2022-09-28T07:56:07.108Z,70.90
2022-09-28T07:57:06.582Z,72.35
2022-09-28T07:58:06.572Z,70.58
2022-09-28T07:59:06.589Z,70.58
2022-09-28T08:00:06.544Z,73.32
2022-09-28T08:01:06.727Z,67.19
2022-09-28T08:02:06.894Z,72.67
2022-09-28T08:03:06.508Z,71.38
2022-09-28T08:04:06.510Z,70.90
2022-09-28T08:05:06.527Z,72.19
2022-09-28T08:06:06.467Z,69.29
2022-09-28T08:07:06.451Z,69.45
2022-09-28T08:08:06.455Z,69.61
2022-09-28T08:09:06.430Z,70.74
2022-09-28T08:10:06.411Z,67.84
2022-09-28T08:11:06.429Z,63.16
2022-09-28T08:12:06.396Z,70.09
2022-09-28T08:13:08.608Z,69.77
2022-09-28T08:14:06.374Z,70.58
2022-09-28T08:15:06.359Z,74.77
2022-09-28T08:16:06.374Z,66.87
2022-09-28T08:17:06.366Z,70.09
2022-09-28T08:18:06.311Z,72.03
2022-09-28T08:19:06.356Z,63.16
2022-09-28T08:20:06.298Z,65.74
2022-09-28T08:21:06.300Z,70.90
2022-09-28T08:22:06.328Z,63.81
2022-09-28T08:23:06.299Z,69.29
2022-09-28T08:24:06.280Z,71.54
2022-09-28T08:25:06.242Z,68.00
2022-09-28T08:26:06.220Z,63.16
2022-09-28T08:27:06.202Z,68.64
2022-09-28T08:28:06.199Z,66.06
2022-09-28T08:29:06.252Z,69.45
2022-09-28T08:30:06.196Z,71.70
2022-09-28T08:31:06.216Z,70.09
2022-09-28T08:32:06.141Z,70.90
2022-09-28T08:33:06.131Z,68.16
2022-09-28T08:34:06.135Z,68.00
2022-09-28T08:35:06.126Z,68.00
2022-09-28T08:36:06.122Z,69.61
2022-09-28T08:37:06.098Z,72.19
2022-09-28T08:38:06.114Z,65.74
2022-09-28T08:39:06.054Z,72.19
2022-09-28T08:40:06.046Z,72.99
2022-09-28T08:41:06.057Z,67.51
2022-09-28T08:42:06.057Z,71.70
2022-09-28T08:43:06.019Z,66.55
2022-09-28T08:44:06.235Z,71.54
2022-09-28T08:45:05.973Z,74.93
2022-09-28T08:46:06.037Z,68.00
2022-09-28T08:47:06.014Z,71.22
2022-09-28T08:48:05.941Z,72.51
2022-09-28T08:49:24.280Z,65.26
2022-09-28T08:50:05.919Z,69.29
2022-09-28T08:51:05.896Z,70.90
2022-09-28T08:52:05.942Z,75.25
2022-09-28T08:53:05.905Z,77.02
2022-09-28T08:54:08.219Z,69.61
2022-09-28T08:55:05.895Z,67.03
2022-09-28T08:56:05.843Z,70.74
2022-09-28T08:57:05.844Z,73.80
2022-09-28T08:58:05.818Z,71.70
2022-09-28T08:59:05.862Z,68.32
2022-09-28T09:00:09.580Z,70.58
2022-09-28T09:01:05.831Z,68.48
2022-09-28T09:02:05.857Z,67.19
2022-09-28T09:03:05.771Z,75.41
2022-09-28T09:04:05.740Z,63.97
2022-09-28T09:05:06.055Z,69.29
2022-09-28T09:06:05.715Z,72.83
2022-09-28T09:07:05.719Z,66.06
2022-09-28T09:08:05.738Z,70.25
2022-09-28T09:09:05.673Z,69.93
2022-09-28T09:10:05.676Z,71.06
2022-09-28T09:11:05.680Z,70.58
2022-09-28T09:12:05.634Z,71.70
2022-09-28T09:13:05.631Z,70.09
2022-09-28T09:14:05.615Z,68.48
2022-09-28T09:15:05.611Z,71.54
2022-09-28T09:16:05.577Z,68.64
2022-09-28T09:17:05.634Z,69.29
2022-09-28T09:18:06.557Z,70.09
2022-09-28T09:19:05.543Z,64.78
2022-09-28T09:20:05.541Z,67.03
2022-09-28T09:21:05.537Z,72.35
2022-09-28T09:22:05.535Z,67.35
2022-09-28T09:23:05.547Z,63.33
2022-09-28T09:24:05.480Z,71.06
2022-09-28T09:25:05.485Z,81.37
2022-09-28T09:26:05.461Z,70.90
2022-09-28T09:27:05.447Z,69.77
2022-09-28T09:28:05.558Z,67.03
2022-09-28T09:29:05.441Z,67.51
2022-09-28T09:30:05.474Z,70.42
2022-09-28T09:31:05.431Z,68.96
2022-09-28T09:32:05.373Z,68.16
2022-09-28T09:33:05.442Z,70.58
2022-09-28T09:34:05.670Z,69.93
2022-09-28T09:35:05.383Z,72.99
2022-09-28T09:36:05.952Z,73.32
2022-09-28T09:37:05.338Z,69.77
2022-09-28T09:38:05.319Z,70.09
2022-09-28T09:39:05.299Z,77.34
2022-09-28T09:40:05.307Z,66.55
2022-09-28T09:41:05.463Z,70.09
2022-09-28T09:42:05.274Z,71.70
2022-09-28T09:43:05.533Z,68.16
2022-09-28T09:44:05.266Z,60.10
2022-09-28T09:45:05.221Z,70.58
2022-09-28T09:46:05.306Z,75.09
2022-09-28T09:47:05.439Z,68.16
2022-09-28T09:48:05.177Z,71.70
2022-09-28T09:49:05.169Z,68.32
2022-09-28T09:50:08.327Z,66.71
2022-09-28T09:51:05.152Z,73.48
2022-09-28T09:52:05.148Z,69.13
2022-09-28T09:53:05.214Z,69.93
2022-09-28T09:54:05.094Z,68.64
2022-09-28T09:55:05.103Z,63.97
2022-09-28T09:56:05.088Z,70.90
2022-09-28T09:57:05.073Z,71.54
2022-09-28T09:58:05.087Z,65.42
2022-09-28T09:59:05.091Z,69.77
2022-09-28T10:00:05.027Z,72.19
2022-09-28T10:01:05.052Z,66.87
2022-09-28T10:02:08.722Z,68.32
2022-09-28T10:03:05.010Z,72.35
2022-09-28T10:04:05.003Z,65.74
2022-09-28T10:05:04.993Z,70.90
2022-09-28T10:06:04.945Z,70.25
2022-09-28T10:07:05.164Z,82.50
2022-09-28T10:08:04.955Z,68.00
2022-09-28T10:09:04.984Z,70.58
2022-09-28T10:10:05.424Z,67.68
2022-09-28T10:11:04.961Z,68.64
2022-09-28T10:12:05.450Z,71.54
2022-09-28T10:13:04.889Z,68.64
2022-09-28T10:14:06.683Z,70.42
2022-09-28T10:15:04.873Z,72.03
2022-09-28T10:16:05.677Z,67.35
2022-09-28T10:17:04.972Z,65.26
2022-09-28T10:18:04.846Z,71.70
2022-09-28T10:19:05.467Z,65.42
2022-09-28T10:20:04.820Z,70.09
2022-09-28T10:21:04.789Z,71.54
2022-09-28T10:22:04.797Z,69.61
2022-09-28T10:23:04.763Z,69.29
2022-09-28T10:24:04.765Z,70.58
2022-09-28T10:25:04.723Z,70.42
2022-09-28T10:26:04.721Z,70.25
2022-09-28T10:27:04.685Z,70.58
2022-09-28T10:28:04.673Z,70.25
2022-09-28T10:29:04.696Z,71.38
2022-09-28T10:30:04.648Z,71.38
2022-09-28T10:31:04.763Z,66.55
2022-09-28T10:32:04.875Z,67.03
2022-09-28T10:33:04.643Z,71.22
2022-09-28T10:34:04.638Z,64.94
2022-09-28T10:35:04.647Z,67.35
2022-09-28T10:36:04.595Z,69.93
2022-09-28T10:37:04.591Z,64.13
2022-09-28T10:38:04.674Z,66.23
2022-09-28T10:39:04.559Z,70.42
2022-09-28T10:40:04.558Z,67.84
2022-09-28T10:41:04.905Z,71.22
2022-09-28T10:42:04.539Z,73.48
2022-09-28T10:43:04.768Z,68.96
2022-09-28T10:44:05.184Z,67.51
2022-09-28T10:45:05.437Z,71.87
2022-09-28T10:46:04.520Z,67.68
2022-09-28T10:47:04.492Z,67.84
2022-09-28T10:48:05.659Z,71.06
2022-09-28T10:49:04.426Z,67.19
2022-09-28T10:50:04.416Z,66.55
2022-09-28T10:51:04.436Z,70.25
2022-09-28T10:52:05.202Z,65.26
2022-09-28T10:53:04.410Z,69.29
2022-09-28T10:54:04.590Z,71.70
2022-09-28T10:55:04.346Z,67.84
2022-09-28T10:56:04.317Z,66.55
2022-09-28T10:57:04.322Z,71.70
2022-09-28T10:58:04.325Z,67.68
2022-09-28T10:59:05.006Z,69.29
2022-09-28T11:00:04.329Z,69.93
2022-09-28T11:01:04.395Z,66.06
2022-09-28T11:02:04.408Z,63.65
2022-09-28T11:03:04.262Z,69.13
2022-09-28T11:04:04.244Z,69.13
2022-09-28T11:05:04.445Z,65.42
2022-09-28T11:06:04.265Z,70.74
2022-09-28T11:07:04.172Z,64.61
2022-09-28T11:08:05.170Z,69.61
2022-09-28T11:09:04.172Z,68.32
2022-09-28T11:10:05.619Z,60.75
2022-09-28T11:11:04.698Z,67.03
2022-09-28T11:12:04.140Z,69.77
2022-09-28T11:13:06.706Z,64.29
2022-09-28T11:14:04.109Z,70.42
2022-09-28T11:15:04.126Z,71.06
2022-09-28T11:16:04.930Z,60.59
2022-09-28T11:17:04.504Z,71.38
2022-09-28T11:18:04.045Z,71.54
2022-09-28T11:19:04.547Z,69.77
2022-09-28T11:20:04.674Z,64.94
2022-09-28T11:21:04.238Z,68.64
2022-09-28T11:22:04.009Z,70.58
2022-09-28T11:23:04.423Z,68.16
2022-09-28T11:24:07.298Z,69.77
2022-09-28T11:25:03.972Z,63.65
2022-09-28T11:26:03.929Z,66.23
2022-09-28T11:27:03.992Z,71.06
2022-09-28T11:28:03.941Z,69.13
2022-09-28T11:29:04.413Z,66.55
2022-09-28T11:30:03.883Z,71.54
2022-09-28T11:31:03.926Z,64.45
2022-09-28T11:32:03.907Z,66.87
2022-09-28T11:33:03.920Z,69.93
2022-09-28T11:34:04.145Z,66.06
2022-09-28T11:35:11.047Z,69.29
2022-09-28T11:36:07.567Z,70.58
2022-09-28T11:37:03.836Z,68.00
2022-09-28T11:38:04.478Z,68.00
2022-09-28T11:39:05.443Z,68.64
2022-09-28T11:40:05.820Z,65.26
2022-09-28T11:41:03.929Z,65.74
2022-09-28T11:42:04.481Z,70.90
2022-09-28T11:43:03.780Z,67.68
2022-09-28T11:44:03.783Z,63.16
2022-09-28T11:45:05.376Z,69.93
2022-09-28T11:46:03.817Z,66.39
2022-09-28T11:47:03.718Z,69.77
2022-09-28T11:48:03.663Z,68.96
2022-09-28T11:49:03.652Z,68.00
2022-09-28T11:50:03.658Z,67.51
2022-09-28T11:51:03.626Z,69.13
2022-09-28T11:52:03.612Z,65.58
2022-09-28T11:53:03.602Z,65.74
2022-09-28T11:54:03.595Z,70.25
2022-09-28T11:55:03.572Z,68.96
2022-09-28T11:56:08.550Z,65.26
2022-09-28T11:57:03.554Z,69.61
2022-09-28T11:58:03.524Z,68.64
2022-09-28T11:59:03.541Z,65.58
2022-09-28T12:00:03.525Z,72.99
2022-09-28T12:01:03.587Z,65.10
2022-09-28T12:02:03.629Z,70.58
2022-09-28T12:03:03.623Z,70.74
2022-09-28T12:04:03.550Z,67.03
2022-09-28T12:05:03.726Z,65.90
2022-09-28T12:06:04.391Z,64.13
2022-09-28T12:07:03.479Z,64.94
2022-09-28T12:08:03.735Z,66.23
2022-09-28T12:09:03.447Z,69.29
2022-09-28T12:10:03.432Z,67.51
2022-09-28T12:11:03.414Z,67.35
2022-09-28T12:12:03.375Z,70.74
2022-09-28T12:13:03.376Z,72.03
2022-09-28T12:14:03.430Z,64.45
2022-09-28T12:15:03.593Z,68.80
2022-09-28T12:17:07.332Z,71.06
2022-09-28T12:18:04.078Z,70.58
2022-09-28T12:19:03.309Z,68.16
2022-09-28T12:20:03.331Z,66.87
2022-09-28T12:21:05.182Z,68.80
2022-09-28T12:22:03.284Z,63.65
2022-09-28T12:23:03.480Z,69.13
2022-09-28T12:24:03.206Z,72.51
2022-09-28T12:25:03.206Z,66.23
2022-09-28T12:26:03.885Z,64.94
2022-09-28T12:27:03.437Z,68.48
2022-09-28T12:28:03.271Z,68.32
2022-09-28T12:29:03.139Z,66.23
2022-09-28T12:30:03.603Z,68.96
2022-09-28T12:31:03.926Z,68.00
2022-09-28T12:32:03.091Z,67.35
2022-09-28T12:33:03.105Z,67.51
2022-09-28T12:34:03.135Z,64.94
2022-09-28T12:35:03.333Z,67.03
2022-09-28T12:36:03.073Z,70.25
2022-09-28T12:37:03.067Z,67.03
2022-09-28T12:38:03.066Z,68.48
2022-09-28T12:39:18.089Z,71.38
2022-09-28T12:40:03.453Z,70.58
2022-09-28T12:41:03.136Z,71.38
2022-09-28T12:42:03.214Z,69.61
2022-09-28T12:43:02.962Z,72.83
2022-09-28T12:44:02.954Z,71.87
2022-09-28T12:45:03.020Z,74.60
2022-09-28T12:46:13.006Z,71.06
2022-09-28T12:47:02.996Z,71.38
2022-09-28T12:48:02.903Z,72.83
2022-09-28T12:51:03.130Z,71.38
2022-09-28T12:52:02.881Z,68.32
2022-09-28T12:53:03.398Z,66.39
2022-09-28T12:54:02.886Z,73.15
2022-09-28T12:55:03.623Z,64.29